Time;durP1;ratioP1;P1;durP2;ratioP2;P2;SDS_P1;SDS_P2;PMS_P1;PMS_P2;Temp;Humidity;BMP_temperature;BMP_pressure;BME280_temperature;BME280_humidity;BME280_pressure;Samples;Min_cycle;Max_cycle;Signal;HPM_P1;HPM_P2
2022/02/07 07:00:19;;;;;;;6.78;2.22;;;;;;;;;;5896015;23;20027;-85
2022/02/07 07:02:48;;;;;;;8.98;2.65;;;;;;;;;;4932202;28;20056;-85
2022/02/07 07:05:21;;;;;;;8.15;2.00;;;;;;;;;;4929143;29;20047;-85
2022/02/07 07:07:48;;;;;;;11.45;3.83;;;;;;;;;;4930556;29;20055;-85
2022/02/07 07:10:16;;;;;;;8.27;2.85;;;;;;;;;;4943328;29;20508;-85
2022/02/07 07:12:45;;;;;;;12.95;7.05;;;;;;;;;;4932753;29;20083;-85
2022/02/07 07:15:15;;;;;;;7.47;2.67;;;;;;;;;;4933204;29;20056;-85
2022/02/07 07:17:43;;;;;;;13.60;8.50;;;;;;;;;;4930421;29;20052;-85
2022/02/07 07:20:11;;;;;;;38.83;23.15;;;;;;;;;;4930094;28;20044;-85
2022/02/07 07:22:38;;;;;;;18.98;12.50;;;;;;;;;;4932160;28;20050;-83
2022/02/07 07:25:08;;;;;;;33.38;18.98;;;;;;;;;;4932565;28;20067;-84
2022/02/07 07:27:44;;;;;;;14.48;7.80;;;;;;;;;;4934763;28;20051;-84
2022/02/07 07:30:12;;;;;;;13.73;8.07;;;;;;;;;;4933977;28;20512;-84
2022/02/07 07:32:39;;;;;;;8.68;5.45;;;;;;;;;;4932878;28;20453;-85
2022/02/07 07:35:06;;;;;;;4.70;2.30;;;;;;;;;;4930600;29;20138;-84
2022/02/07 07:37:33;;;;;;;9.82;3.55;;;;;;;;;;4930364;29;20398;-84
2022/02/07 07:39:59;;;;;;;10.38;2.75;;;;;;;;;;4931271;29;20119;-84
2022/02/07 07:42:27;;;;;;;7.18;2.42;;;;;;;;;;4930775;28;20118;-85
2022/02/07 07:44:55;;;;;;;6.20;1.90;;;;;;;;;;4928922;29;20469;-84
2022/02/07 07:47:27;;;;;;;9.95;2.05;;;;;;;;;;4929480;29;20047;-84
2022/02/07 07:50:08;;;;;;;7.55;2.42;;;;;;;;;;4929501;28;20044;-84
2022/02/07 07:52:58;;;;;;;8.40;2.00;;;;;;;;;;4929515;29;20083;-84
2022/02/07 08:01:16;;;;;;;8.27;2.00;;;;;;;;;;4913988;29;20497;-84
2022/02/07 08:03:48;;;;;;;8.45;2.40;;;;;;;;;;4928188;28;20048;-84
2022/02/07 08:07:07;;;;;;;5.50;2.40;;;;;;;;;;4929789;29;20047;-83
2022/02/07 08:11:37;;;;;;;10.75;2.13;;;;;;;;;;4933526;28;20102;-84
2022/02/07 08:14:05;;;;;;;14.80;2.38;;;;;;;;;;4928739;28;20044;-83
2022/02/07 08:16:31;;;;;;;13.10;3.17;;;;;;;;;;4929383;29;20059;-84
2022/02/07 08:19:05;;;;;;;15.27;2.67;;;;;;;;;;4929996;29;20106;-84
2022/02/07 08:21:35;;;;;;;23.08;3.53;;;;;;;;;;4931568;28;20055;-83
2022/02/07 08:24:04;;;;;;;17.90;2.60;;;;;;;;;;4928692;28;20052;-84
2022/02/07 08:26:31;;;;;;;19.20;3.30;;;;;;;;;;4924914;28;20469;-84
2022/02/07 08:28:57;;;;;;;17.73;2.97;;;;;;;;;;4928744;28;20051;-84
2022/02/07 08:31:24;;;;;;;15.15;3.08;;;;;;;;;;4928652;28;20060;-85
2022/02/07 08:33:51;;;;;;;22.92;2.90;;;;;;;;;;4931249;28;20512;-84
2022/02/07 08:36:19;;;;;;;19.98;3.47;;;;;;;;;;4929752;28;20113;-87
2022/02/07 08:38:46;;;;;;;20.25;3.50;;;;;;;;;;4928846;29;20580;-84
2022/02/07 08:41:12;;;;;;;23.55;4.25;;;;;;;;;;4928529;28;20469;-86
2022/02/07 08:43:39;;;;;;;15.18;2.85;;;;;;;;;;4929433;28;20048;-85
2022/02/07 08:46:06;;;;;;;22.83;6.45;;;;;;;;;;4928094;29;20202;-83
2022/02/07 08:48:33;;;;;;;23.75;5.72;;;;;;;;;;4931316;28;20055;-83
2022/02/07 08:51:00;;;;;;;25.38;5.53;;;;;;;;;;4928646;29;20059;-84
2022/02/07 08:53:33;;;;;;;29.60;8.45;;;;;;;;;;4928342;29;20043;-84
2022/02/07 08:56:02;;;;;;;19.52;6.22;;;;;;;;;;4928714;28;20047;-84
2022/02/07 08:58:32;;;;;;;32.58;7.05;;;;;;;;;;4932013;29;20051;-84
2022/02/07 09:01:43;;;;;;;28.58;6.70;;;;;;;;;;4933591;29;20079;-84
2022/02/07 09:11:26;;;;;;;22.65;3.88;;;;;;;;;;4937441;28;20044;-84
2022/02/07 09:13:55;;;;;;;27.25;6.32;;;;;;;;;;4932215;28;20071;-83
2022/02/07 09:16:30;;;;;;;;;;;;;;;;;;4931584;29;20111;-83
2022/02/07 09:19:00;;;;;;;15.23;2.97;;;;;;;;;;4932844;29;19959;-84
2022/02/07 09:21:28;;;;;;;20.98;3.72;;;;;;;;;;4931795;28;20075;-84
2022/02/07 09:23:56;;;;;;;22.15;3.72;;;;;;;;;;4927005;28;20107;-83
2022/02/07 09:26:23;;;;;;;21.15;3.55;;;;;;;;;;4928194;28;20052;-83
2022/02/07 09:28:51;;;;;;;13.05;2.35;;;;;;;;;;4929873;28;20048;-82
2022/02/07 09:31:18;;;;;;;15.70;3.22;;;;;;;;;;4925097;29;20119;-83
2022/02/07 09:33:45;;;;;;;12.02;3.28;;;;;;;;;;4932616;28;20563;-84
2022/02/07 09:36:15;;;;;;;10.50;3.97;;;;;;;;;;4932302;28;20051;-82
2022/02/07 09:38:43;;;;;;;9.43;3.80;;;;;;;;;;4932692;29;20044;-83
2022/02/07 09:41:11;;;;;;;6.45;1.60;;;;;;;;;;4932855;29;20114;-82
2022/02/07 09:43:44;;;;;;;11.10;1.55;;;;;;;;;;4931439;28;20051;-82
2022/02/07 09:46:21;;;;;;;8.57;1.50;;;;;;;;;;4916284;29;20050;-83
2022/02/07 09:48:51;;;;;;;13.85;2.28;;;;;;;;;;4932984;29;20115;-83
2022/02/07 09:51:19;;;;;;;8.80;2.63;;;;;;;;;;4933143;28;20052;-83
2022/02/07 09:53:45;;;;;;;12.32;2.17;;;;;;;;;;4931383;29;20056;-83
2022/02/07 09:56:12;;;;;;;13.80;2.85;;;;;;;;;;4930897;29;20107;-83
2022/02/07 09:58:40;;;;;;;14.75;3.28;;;;;;;;;;4929920;29;20044;-83
2022/02/07 10:01:14;;;;;;;19.27;5.03;;;;;;;;;;4931792;28;20095;-83
2022/02/07 10:03:55;;;;;;;15.13;6.32;;;;;;;;;;4930249;28;20059;-84
2022/02/07 10:09:16;;;;;;;13.93;2.03;;;;;;;;;;4938112;28;20117;-84
2022/02/07 10:17:20;;;;;;;10.55;3.55;;;;;;;;;;4931205;29;20044;-84
2022/02/07 10:20:14;;;;;;;14.15;2.58;;;;;;;;;;4930740;29;20044;-84
2022/02/07 10:34:27;;;;;;;13.57;2.80;;;;;;;;;;4930618;28;20087;-84
2022/02/07 10:39:57;;;;;;;10.38;3.25;;;;;;;;;;4930108;28;20572;-83
2022/02/07 10:44:59;;;;;;;12.48;2.17;;;;;;;;;;4931523;28;20051;-84
2022/02/07 10:47:42;;;;;;;10.90;3.40;;;;;;;;;;4929616;28;20099;-84
2022/02/07 10:50:12;;;;;;;16.20;3.88;;;;;;;;;;4930079;29;20595;-84
2022/02/07 10:52:49;;;;;;;15.52;2.95;;;;;;;;;;4930803;29;20066;-84
2022/02/07 10:55:23;;;;;;;11.02;2.97;;;;;;;;;;4906964;28;20055;-85
2022/02/07 10:57:52;;;;;;;6.72;1.98;;;;;;;;;;4935899;28;20416;-84
2022/02/07 11:00:30;;;;;;;8.27;1.50;;;;;;;;;;4927328;28;20066;-83
2022/02/07 11:05:37;;;;;;;12.60;2.35;;;;;;;;;;4928704;28;20051;-85
2022/02/07 11:14:06;;;;;;;15.27;2.63;;;;;;;;;;4887272;29;20059;-85
2022/02/07 11:19:14;;;;;;;4.90;1.00;;;;;;;;;;4887226;29;20052;-85
2022/02/07 11:25:16;;;;;;;3.55;0.70;;;;;;;;;;4884392;29;20059;-84
2022/02/07 11:27:53;;;;;;;3.40;0.70;;;;;;;;;;4884589;29;20425;-85
2022/02/07 11:30:51;;;;;;;4.03;0.60;;;;;;;;;;4887606;29;20458;-86
2022/02/07 11:33:31;;;;;;;5.07;0.47;;;;;;;;;;4890058;29;20056;-86
2022/02/07 11:35:58;;;;;;;3.10;0.70;;;;;;;;;;4885901;29;20544;-85
2022/02/07 11:38:24;;;;;;;5.07;1.85;;;;;;;;;;4888809;29;20060;-85
2022/02/07 11:41:04;;;;;;;2.28;0.40;;;;;;;;;;4868622;29;20049;-85
2022/02/07 11:43:38;;;;;;;2.10;0.55;;;;;;;;;;4888557;29;20139;-85
2022/02/07 11:46:07;;;;;;;2.50;0.65;;;;;;;;;;4887210;29;20064;-85
2022/02/07 11:48:41;;;;;;;4.65;0.80;;;;;;;;;;4873120;29;20060;-86
2022/02/07 11:51:16;;;;;;;4.80;0.82;;;;;;;;;;4916186;28;20512;-85
2022/02/07 11:53:51;;;;;;;7.00;1.55;;;;;;;;;;4928097;28;20048;-85
2022/02/07 11:56:30;;;;;;;3.03;0.70;;;;;;;;;;4927453;28;20079;-85
2022/02/07 11:59:10;;;;;;;;;;;;;;;;;;4928560;28;20051;-86
2022/02/07 12:01:52;;;;;;;7.25;2.67;;;;;;;;;;4924463;29;19923;-85
2022/02/07 12:04:38;;;;;;;9.57;6.05;;;;;;;;;;4926555;28;20043;-85
2022/02/07 12:07:11;;;;;;;2.63;0.75;;;;;;;;;;4927402;28;20055;-83
2022/02/07 12:12:47;;;;;;;7.82;3.03;;;;;;;;;;4932148;28;20047;-85
2022/02/07 12:15:18;;;;;;;6.63;0.70;;;;;;;;;;4930279;28;20052;-84
2022/02/07 12:17:54;;;;;;;3.38;0.77;;;;;;;;;;4928848;28;20055;-85
2022/02/07 12:20:33;;;;;;;4.03;1.08;;;;;;;;;;4931154;28;20075;-84
2022/02/07 12:23:14;;;;;;;5.05;0.88;;;;;;;;;;4929554;28;20428;-85
2022/02/07 12:25:52;;;;;;;28.42;9.98;;;;;;;;;;4927960;29;20059;-85
2022/02/07 12:28:44;;;;;;;31.85;10.85;;;;;;;;;;4914753;29;20181;-85
2022/02/07 12:31:20;;;;;;;24.90;9.80;;;;;;;;;;4931343;28;20111;-85
2022/02/07 12:34:12;;;;;;;18.02;7.07;;;;;;;;;;4935931;28;20528;-84
2022/02/07 12:36:40;;;;;;;6.70;0.90;;;;;;;;;;4935486;28;20135;-87
2022/02/07 12:39:09;;;;;;;4.78;1.10;;;;;;;;;;4933219;28;20055;-84
2022/02/07 12:41:36;;;;;;;7.25;1.10;;;;;;;;;;4932526;28;20103;-87
2022/02/07 12:44:07;;;;;;;7.50;1.20;;;;;;;;;;4932233;29;20341;-84
2022/02/07 12:46:36;;;;;;;3.42;0.60;;;;;;;;;;4931766;29;20071;-85
2022/02/07 12:49:09;;;;;;;4.70;0.80;;;;;;;;;;4934320;28;20508;-84
2022/02/07 12:51:47;;;;;;;3.78;1.13;;;;;;;;;;4935086;28;20099;-84
2022/02/07 12:54:17;;;;;;;;;;;;;;;;;;4933125;28;20040;-85
2022/02/07 12:56:44;;;;;;;;;;;;;;;;;;4927498;29;20391;-85
2022/02/07 12:59:10;;;;;;;4.68;1.33;;;;;;;;;;4934468;28;19922;-84
2022/02/07 13:01:42;;;;;;;7.93;1.60;;;;;;;;;;4929917;28;20149;-86
2022/02/07 13:04:17;;;;;;;12.25;2.35;;;;;;;;;;4918941;29;20050;-85
2022/02/07 13:06:47;;;;;;;9.88;1.58;;;;;;;;;;4931900;28;20055;-86
2022/02/07 13:09:24;;;;;;;13.07;1.85;;;;;;;;;;4944218;28;20516;-86
2022/02/07 13:12:02;;;;;;;9.07;1.58;;;;;;;;;;4934985;29;20063;-86
2022/02/07 13:14:32;;;;;;;7.82;1.10;;;;;;;;;;4931563;28;20055;-85
2022/02/07 13:16:59;;;;;;;6.50;0.75;;;;;;;;;;4931736;28;20114;-86
2022/02/07 13:19:28;;;;;;;6.80;1.17;;;;;;;;;;4933081;28;20055;-85
2022/02/07 13:21:55;;;;;;;5.80;1.10;;;;;;;;;;4933901;29;20075;-85
2022/02/07 13:24:24;;;;;;;5.88;1.30;;;;;;;;;;4932345;28;20530;-85
2022/02/07 13:26:53;;;;;;;8.23;1.08;;;;;;;;;;4934838;28;20047;-86
2022/02/07 13:29:21;;;;;;;;;;;;;;;;;;4931069;28;20089;-86
2022/02/07 13:31:56;;;;;;;6.37;1.13;;;;;;;;;;4932357;28;19926;-87
2022/02/07 13:34:30;;;;;;;10.05;1.55;;;;;;;;;;4920178;29;20296;-86
2022/02/07 13:37:10;;;;;;;;;;;;;;;;;;4937242;28;20051;-87
2022/02/07 13:39:59;;;;;;;7.97;1.17;;;;;;;;;;4934866;28;19926;-85
2022/02/07 13:42:30;;;;;;;11.73;1.30;;;;;;;;;;4932716;28;20052;-84
2022/02/07 13:45:10;;;;;;;6.57;1.50;;;;;;;;;;4933763;28;20047;-85
2022/02/07 13:47:40;;;;;;;5.30;0.98;;;;;;;;;;4931398;29;20056;-85
2022/02/07 13:50:17;;;;;;;5.43;1.15;;;;;;;;;;4931000;28;20052;-84
2022/02/07 13:52:47;;;;;;;3.50;1.30;;;;;;;;;;4934146;28;20055;-85
2022/02/07 13:55:22;;;;;;;6.72;0.90;;;;;;;;;;4915022;29;20054;-85
2022/02/07 13:58:08;;;;;;;5.63;0.70;;;;;;;;;;4930601;28;20107;-85
2022/02/07 14:00:44;;;;;;;3.88;1.00;;;;;;;;;;4931649;29;20047;-84
2022/02/07 14:03:19;;;;;;;7.55;1.10;;;;;;;;;;4934145;28;20075;-85
2022/02/07 14:05:51;;;;;;;5.05;1.20;;;;;;;;;;4932897;28;20470;-84
2022/02/07 14:08:31;;;;;;;5.15;0.90;;;;;;;;;;4935875;28;20114;-86
2022/02/07 14:10:58;;;;;;;4.55;1.25;;;;;;;;;;4942477;28;20134;-87
2022/02/07 14:13:25;;;;;;;2.40;0.73;;;;;;;;;;4931010;28;20047;-88
2022/02/07 14:15:52;;;;;;;3.80;0.52;;;;;;;;;;4933640;28;20171;-86
2022/02/07 14:18:19;;;;;;;3.03;0.52;;;;;;;;;;4932612;28;20481;-86
2022/02/07 14:20:46;;;;;;;2.08;0.38;;;;;;;;;;4930856;29;20596;-86
2022/02/07 14:23:15;;;;;;;2.35;0.50;;;;;;;;;;4932708;29;20075;-85
2022/02/07 14:25:44;;;;;;;1.85;0.40;;;;;;;;;;4932981;28;20118;-84
2022/02/07 14:28:12;;;;;;;1.65;0.60;;;;;;;;;;4931157;28;20050;-84
2022/02/07 14:30:38;;;;;;;4.35;0.60;;;;;;;;;;4933914;28;20055;-85
2022/02/07 14:33:06;;;;;;;3.00;0.60;;;;;;;;;;4930277;28;20051;-87
2022/02/07 14:35:35;;;;;;;3.28;0.70;;;;;;;;;;4930882;28;20528;-87
2022/02/07 14:38:04;;;;;;;3.55;0.90;;;;;;;;;;4930407;29;20138;-88
2022/02/07 14:40:32;;;;;;;1.48;0.75;;;;;;;;;;4931571;28;20044;-87
2022/02/07 14:43:05;;;;;;;1.75;0.50;;;;;;;;;;4930907;29;20056;-87
2022/02/07 14:45:41;;;;;;;2.92;0.82;;;;;;;;;;4934004;28;20056;-88
2022/02/07 14:48:08;;;;;;;2.85;0.80;;;;;;;;;;4931504;28;20051;-88
2022/02/07 14:50:35;;;;;;;1.17;0.50;;;;;;;;;;4920083;29;20088;-85
2022/02/07 14:53:02;;;;;;;1.75;0.52;;;;;;;;;;4921442;29;20476;-85
2022/02/07 14:55:30;;;;;;;3.17;0.50;;;;;;;;;;4928418;29;20048;-86
2022/02/07 14:57:57;;;;;;;2.92;0.70;;;;;;;;;;4931495;29;20501;-85
2022/02/07 15:00:28;;;;;;;1.20;0.60;;;;;;;;;;4929696;28;20536;-86
2022/02/07 15:02:57;;;;;;;1.58;0.50;;;;;;;;;;4930040;28;20055;-87
2022/02/07 15:05:29;;;;;;;5.28;0.68;;;;;;;;;;4929385;28;20048;-87
2022/02/07 15:07:57;;;;;;;0.65;0.40;;;;;;;;;;4930060;28;20048;-87
2022/02/07 15:10:24;;;;;;;3.40;0.77;;;;;;;;;;4917763;29;20111;-87
2022/02/07 15:12:51;;;;;;;1.67;0.40;;;;;;;;;;4932668;28;20056;-87
2022/02/07 15:15:18;;;;;;;1.10;0.40;;;;;;;;;;4930538;29;20048;-87
2022/02/07 15:17:46;;;;;;;1.92;0.40;;;;;;;;;;4930110;29;20055;-88
2022/02/07 15:20:13;;;;;;;2.08;0.40;;;;;;;;;;4929246;28;20044;-87
2022/02/07 15:22:46;;;;;;;3.17;0.40;;;;;;;;;;4929954;28;20055;-87
2022/02/07 15:25:22;;;;;;;1.05;0.40;;;;;;;;;;4929160;28;20568;-85
2022/02/07 15:27:49;;;;;;;2.88;0.60;;;;;;;;;;4929582;28;20083;-88
2022/02/07 15:30:41;;;;;;;2.30;0.60;;;;;;;;;;4931750;29;20074;-88
2022/02/07 15:33:12;;;;;;;2.40;0.50;;;;;;;;;;4929573;28;20424;-88
2022/02/07 15:35:44;;;;;;;2.33;0.60;;;;;;;;;;4930082;28;20060;-88
2022/02/07 15:38:11;;;;;;;2.55;0.70;;;;;;;;;;4931489;28;20106;-85
2022/02/07 15:40:38;;;;;;;1.35;0.50;;;;;;;;;;4932892;28;20043;-84
2022/02/07 15:43:05;;;;;;;2.55;0.63;;;;;;;;;;4931127;28;20055;-87
2022/02/07 15:45:33;;;;;;;2.13;0.50;;;;;;;;;;4933662;28;20052;-84
2022/02/07 15:48:00;;;;;;;0.80;0.50;;;;;;;;;;4933434;28;20123;-86
2022/02/07 15:50:27;;;;;;;1.30;0.52;;;;;;;;;;4929824;28;20544;-88
2022/02/07 15:52:54;;;;;;;2.40;0.43;;;;;;;;;;4929627;29;20106;-87
2022/02/07 15:55:20;;;;;;;2.30;0.43;;;;;;;;;;4932301;28;20052;-86
2022/02/07 15:57:47;;;;;;;1.63;0.40;;;;;;;;;;4932659;28;20118;-87
2022/02/07 16:00:16;;;;;;;1.20;1.10;;;;;;;;;;4924651;29;20095;-85
2022/02/07 16:02:48;;;;;;;3.00;2.63;;;;;;;;;;4927104;28;20402;-87
2022/02/07 16:05:19;;;;;;;13.52;12.43;;;;;;;;;;4929422;28;20103;-85
2022/02/07 16:07:47;;;;;;;4.35;3.33;;;;;;;;;;4934303;29;20052;-85
2022/02/07 16:10:15;;;;;;;6.57;5.05;;;;;;;;;;4948826;28;20048;-86
2022/02/07 16:12:45;;;;;;;7.47;6.88;;;;;;;;;;4936546;28;20107;-86
2022/02/07 16:15:14;;;;;;;3.20;0.40;;;;;;;;;;4934259;28;20516;-87
2022/02/07 16:17:41;;;;;;;3.60;1.75;;;;;;;;;;4934117;28;20070;-86
2022/02/07 16:20:08;;;;;;;2.25;0.70;;;;;;;;;;4932477;28;20051;-87
2022/02/07 16:22:35;;;;;;;2.47;1.10;;;;;;;;;;4931897;29;20056;-88
2022/02/07 16:25:02;;;;;;;2.92;1.80;;;;;;;;;;4934907;29;20110;-89
2022/02/07 16:27:29;;;;;;;8.70;7.10;;;;;;;;;;4935888;28;20511;-87
2022/02/07 16:29:55;;;;;;;4.40;2.80;;;;;;;;;;4932726;29;20051;-87
2022/02/07 16:32:22;;;;;;;6.97;3.60;;;;;;;;;;4932811;28;20415;-86
2022/02/07 16:34:49;;;;;;;5.00;3.92;;;;;;;;;;4934680;28;20043;-87
2022/02/07 16:37:16;;;;;;;4.93;2.45;;;;;;;;;;4918305;29;20579;-88
2022/02/07 16:39:44;;;;;;;3.70;2.35;;;;;;;;;;4935380;29;20048;-87
2022/02/07 16:42:13;;;;;;;2.25;0.98;;;;;;;;;;4934004;28;20051;-86
2022/02/07 16:44:49;;;;;;;7.93;5.00;;;;;;;;;;4933912;28;20056;-87
2022/02/07 16:47:16;;;;;;;12.70;8.77;;;;;;;;;;4929373;28;20396;-87
2022/02/07 16:49:46;;;;;;;4.63;2.53;;;;;;;;;;4932935;29;20064;-88
2022/02/07 16:52:13;;;;;;;4.32;1.40;;;;;;;;;;4933428;29;20119;-87
2022/02/07 16:54:40;;;;;;;4.20;1.42;;;;;;;;;;4935419;28;20052;-86
2022/02/07 16:57:06;;;;;;;5.78;1.52;;;;;;;;;;4932601;28;20051;-87
2022/02/07 16:59:33;;;;;;;4.50;1.63;;;;;;;;;;4931151;29;20424;-87
2022/02/07 17:02:00;;;;;;;13.80;6.97;;;;;;;;;;4932802;29;20086;-88
2022/02/07 17:04:31;;;;;;;8.05;2.75;;;;;;;;;;4934346;28;20043;-88
2022/02/07 17:07:00;;;;;;;5.00;1.55;;;;;;;;;;4935577;28;20496;-88
2022/02/07 17:09:33;;;;;;;6.72;4.25;;;;;;;;;;4933391;28;20116;-88
2022/02/07 17:12:00;;;;;;;5.03;1.52;;;;;;;;;;4929867;28;20106;-88
2022/02/07 17:14:27;;;;;;;11.57;7.95;;;;;;;;;;4931171;28;20059;-88
2022/02/07 17:16:53;;;;;;;5.40;3.40;;;;;;;;;;4929715;28;20051;-87
2022/02/07 17:19:22;;;;;;;3.85;1.45;;;;;;;;;;4929380;28;20070;-87
2022/02/07 17:21:48;;;;;;;2.63;1.17;;;;;;;;;;4932334;28;20405;-87
2022/02/07 17:24:15;;;;;;;2.47;1.05;;;;;;;;;;4931710;28;20532;-88
2022/02/07 17:26:42;;;;;;;3.13;1.50;;;;;;;;;;4929867;28;20048;-88
2022/02/07 17:29:09;;;;;;;4.28;1.05;;;;;;;;;;4930690;28;20055;-88
2022/02/07 17:31:36;;;;;;;3.03;1.80;;;;;;;;;;4929914;28;20059;-88
2022/02/07 17:34:03;;;;;;;4.57;2.45;;;;;;;;;;4930230;29;20111;-88
2022/02/07 17:36:29;;;;;;;7.07;3.38;;;;;;;;;;4930412;29;20051;-88
2022/02/07 17:38:56;;;;;;;5.72;2.42;;;;;;;;;;4930431;29;20051;-87
2022/02/07 17:41:25;;;;;;;5.22;2.45;;;;;;;;;;4930945;28;20461;-88
2022/02/07 17:43:54;;;;;;;6.95;3.17;;;;;;;;;;4933276;28;20114;-88
2022/02/07 17:46:26;;;;;;;4.68;2.33;;;;;;;;;;4929825;28;20056;-88
2022/02/07 17:48:58;;;;;;;11.18;9.60;;;;;;;;;;4932143;28;20052;-87
2022/02/07 17:51:27;;;;;;;4.60;1.60;;;;;;;;;;4932417;28;20052;-86
2022/02/07 17:53:53;;;;;;;4.82;2.03;;;;;;;;;;4930425;28;20047;-86
2022/02/07 17:56:20;;;;;;;2.15;1.75;;;;;;;;;;4929157;29;20047;-86
2022/02/07 17:58:47;;;;;;;4.65;2.85;;;;;;;;;;4929106;29;20058;-86
2022/02/07 18:01:15;;;;;;;4.65;3.17;;;;;;;;;;4930382;28;20075;-87
2022/02/07 18:03:43;;;;;;;7.32;2.25;;;;;;;;;;4930763;28;20107;-87
2022/02/07 18:06:10;;;;;;;19.52;11.20;;;;;;;;;;4929616;28;20044;-87
2022/02/07 18:08:38;;;;;;;8.73;3.70;;;;;;;;;;4930584;28;20064;-87
2022/02/07 18:11:05;;;;;;;4.43;3.20;;;;;;;;;;4929508;28;20058;-87
2022/02/07 18:13:36;;;;;;;6.88;5.03;;;;;;;;;;4931277;29;20107;-88
2022/02/07 18:16:04;;;;;;;4.45;2.58;;;;;;;;;;4930018;28;20058;-88
2022/02/07 18:18:33;;;;;;;9.93;8.32;;;;;;;;;;4930800;28;20059;-87
2022/02/07 18:21:00;;;;;;;7.55;2.53;;;;;;;;;;4929120;29;20437;-87
2022/02/07 18:23:26;;;;;;;6.57;2.78;;;;;;;;;;4928181;28;20063;-88
2022/02/07 18:25:53;;;;;;;7.65;2.92;;;;;;;;;;4930080;28;20043;-87
2022/02/07 18:28:21;;;;;;;6.18;2.65;;;;;;;;;;4927467;28;20048;-87
2022/02/07 18:30:49;;;;;;;8.27;4.28;;;;;;;;;;4930561;28;20540;-86
2022/02/07 18:33:17;;;;;;;9.98;3.63;;;;;;;;;;4929164;28;20059;-88
2022/02/07 18:35:50;;;;;;;9.40;5.35;;;;;;;;;;4926750;28;20047;-87
2022/02/07 18:38:20;;;;;;;11.48;4.78;;;;;;;;;;4928846;28;20051;-87
2022/02/07 18:40:53;;;;;;;10.77;3.95;;;;;;;;;;4928166;28;20047;-87
2022/02/07 18:43:22;;;;;;;10.95;7.57;;;;;;;;;;4929141;28;20115;-87
2022/02/07 18:45:52;;;;;;;12.45;7.80;;;;;;;;;;4927074;28;20051;-87
2022/02/07 18:48:18;;;;;;;9.43;4.35;;;;;;;;;;4928033;28;20094;-87
2022/02/07 18:50:46;;;;;;;6.65;3.83;;;;;;;;;;4930482;28;20054;-88
2022/02/07 18:53:13;;;;;;;9.70;4.80;;;;;;;;;;4922675;28;20047;-87
2022/02/07 18:55:41;;;;;;;11.50;6.82;;;;;;;;;;4929696;28;20055;-88
2022/02/07 19:03:32;;;;;;;7.88;4.00;;;;;;;;;;4929779;28;20134;-90
2022/02/07 19:08:35;;;;;;;7.55;3.42;;;;;;;;;;4928997;28;20071;-87
2022/02/07 19:11:02;;;;;;;5.93;2.75;;;;;;;;;;4927386;28;20068;-86
2022/02/07 19:13:30;;;;;;;8.20;4.40;;;;;;;;;;4928273;29;20106;-89
2022/02/07 19:16:00;;;;;;;4.05;2.42;;;;;;;;;;4929720;28;20513;-86
2022/02/07 19:18:32;;;;;;;5.03;2.03;;;;;;;;;;4929539;28;20054;-89
2022/02/07 19:21:02;;;;;;;4.85;2.22;;;;;;;;;;4928807;28;20044;-88
2022/02/07 19:23:34;;;;;;;4.75;2.33;;;;;;;;;;4926957;29;20054;-87
2022/02/07 19:26:07;;;;;;;4.07;2.20;;;;;;;;;;4922586;29;20244;-88
2022/02/07 19:28:36;;;;;;;5.40;2.10;;;;;;;;;;4921095;28;20240;-86
2022/02/07 19:31:12;;;;;;;4.90;2.45;;;;;;;;;;4927750;29;20055;-86
2022/02/07 19:33:50;;;;;;;5.32;2.30;;;;;;;;;;4928443;29;20058;-85
2022/02/07 19:36:17;;;;;;;4.68;1.90;;;;;;;;;;4927363;29;20051;-89
2022/02/07 19:38:46;;;;;;;3.50;1.80;;;;;;;;;;4927998;28;20194;-86
2022/02/07 19:41:41;;;;;;;;;;;;;;;;;;4927130;28;20401;-86
2022/02/07 19:44:14;;;;;;;3.22;1.08;;;;;;;;;;4927990;28;19923;-86
2022/02/07 19:46:41;;;;;;;1.10;0.80;;;;;;;;;;4928749;28;20040;-86
2022/02/07 19:49:07;;;;;;;3.17;1.67;;;;;;;;;;4929706;29;20060;-86
2022/02/07 19:51:34;;;;;;;4.05;0.90;;;;;;;;;;4929027;29;20055;-87
2022/02/07 19:54:03;;;;;;;3.13;0.90;;;;;;;;;;4929136;28;20055;-87
2022/02/07 19:56:36;;;;;;;3.92;0.90;;;;;;;;;;4926378;28;20516;-86
2022/02/07 19:59:05;;;;;;;3.00;1.35;;;;;;;;;;4926811;28;20543;-88
2022/02/07 20:01:33;;;;;;;12.48;11.38;;;;;;;;;;4926374;28;20056;-87
2022/02/07 20:04:01;;;;;;;6.05;4.15;;;;;;;;;;4928800;28;20115;-86
2022/02/07 20:06:29;;;;;;;12.38;7.65;;;;;;;;;;4925144;28;20047;-87
2022/02/07 20:08:58;;;;;;;23.20;17.90;;;;;;;;;;4932791;29;20155;-87
2022/02/07 20:11:40;;;;;;;34.45;28.48;;;;;;;;;;4927976;28;20044;-89
2022/02/07 20:14:08;;;;;;;83.85;54.58;;;;;;;;;;4927680;28;20143;-87
2022/02/07 20:16:35;;;;;;;6.72;2.53;;;;;;;;;;4925239;29;20060;-87
2022/02/07 20:19:03;;;;;;;25.75;19.88;;;;;;;;;;4928646;28;20059;-87
2022/02/07 20:21:30;;;;;;;6.18;2.55;;;;;;;;;;4927634;29;20044;-87
2022/02/07 20:23:58;;;;;;;3.88;1.40;;;;;;;;;;4926568;29;20051;-87
2022/02/07 20:26:25;;;;;;;4.47;3.67;;;;;;;;;;4927996;28;20394;-87
2022/02/07 20:28:52;;;;;;;4.47;1.95;;;;;;;;;;4926837;29;20055;-87
2022/02/07 20:31:20;;;;;;;4.30;2.95;;;;;;;;;;4927030;28;20568;-86
2022/02/07 20:33:49;;;;;;;7.78;3.25;;;;;;;;;;4927063;28;20063;-87
2022/02/07 20:36:15;;;;;;;5.50;2.40;;;;;;;;;;4927027;28;20052;-86
2022/02/07 20:38:42;;;;;;;7.63;5.00;;;;;;;;;;4926105;28;20146;-87
2022/02/07 20:41:10;;;;;;;5.70;3.47;;;;;;;;;;4925904;28;20512;-87
2022/02/07 20:43:38;;;;;;;6.03;3.00;;;;;;;;;;4928283;28;20055;-87
2022/02/07 20:46:07;;;;;;;6.82;3.15;;;;;;;;;;4927687;28;20062;-87
2022/02/07 20:48:43;;;;;;;8.70;6.00;;;;;;;;;;4928602;29;20452;-88
2022/02/07 20:51:10;;;;;;;61.08;35.97;;;;;;;;;;4926859;28;20108;-89
2022/02/07 20:53:37;;;;;;;58.35;33.35;;;;;;;;;;4931595;28;20460;-87
2022/02/07 20:56:04;;;;;;;29.58;20.13;;;;;;;;;;4930174;29;20433;-87
2022/02/07 20:58:51;;;;;;;39.15;26.65;;;;;;;;;;4930676;28;20505;-86
2022/02/07 21:01:33;;;;;;;11.60;5.90;;;;;;;;;;4932097;28;20062;-87
2022/02/07 21:04:05;;;;;;;8.68;2.60;;;;;;;;;;4934799;28;20484;-86
2022/02/07 21:06:38;;;;;;;5.28;3.17;;;;;;;;;;4933577;29;20054;-86
2022/02/07 21:09:07;;;;;;;11.20;7.82;;;;;;;;;;4942216;28;20059;-85
2022/02/07 21:11:39;;;;;;;11.32;7.68;;;;;;;;;;4939293;28;20091;-87
2022/02/07 21:14:08;;;;;;;7.05;3.25;;;;;;;;;;4931684;28;20095;-86
2022/02/07 21:16:36;;;;;;;6.03;3.80;;;;;;;;;;4933000;28;20059;-86
2022/02/07 21:19:04;;;;;;;5.57;3.53;;;;;;;;;;4934361;28;20591;-86
2022/02/07 21:21:35;;;;;;;5.05;1.50;;;;;;;;;;4933577;28;20039;-86
2022/02/07 21:24:02;;;;;;;5.60;0.90;;;;;;;;;;4932102;29;20066;-86
2022/02/07 21:26:29;;;;;;;5.40;0.88;;;;;;;;;;4927942;28;20044;-87
2022/02/07 21:28:55;;;;;;;5.15;1.65;;;;;;;;;;4932159;28;20047;-85
2022/02/07 21:31:26;;;;;;;3.97;1.65;;;;;;;;;;4932344;29;20107;-87
2022/02/07 21:33:53;;;;;;;5.93;1.30;;;;;;;;;;4935254;28;20095;-86
2022/02/07 21:36:26;;;;;;;8.23;1.90;;;;;;;;;;4933337;28;20063;-86
2022/02/07 21:38:54;;;;;;;3.70;1.55;;;;;;;;;;4931842;29;20078;-86
2022/02/07 21:41:25;;;;;;;8.05;2.40;;;;;;;;;;4932772;28;20051;-86
2022/02/07 21:43:53;;;;;;;7.05;2.10;;;;;;;;;;4931672;28;20087;-87
2022/02/07 21:46:20;;;;;;;12.03;2.67;;;;;;;;;;4933698;28;20052;-86
2022/02/07 21:48:50;;;;;;;7.78;2.90;;;;;;;;;;4935182;28;20346;-86
2022/02/07 21:51:17;;;;;;;8.95;3.83;;;;;;;;;;4932436;29;20424;-87
2022/02/07 21:53:44;;;;;;;9.05;3.13;;;;;;;;;;4934772;28;20055;-87
2022/02/07 21:56:12;;;;;;;6.85;2.88;;;;;;;;;;4932151;28;20508;-86
2022/02/07 21:58:39;;;;;;;5.05;2.10;;;;;;;;;;4930055;28;20108;-87
2022/02/07 22:01:06;;;;;;;8.10;2.22;;;;;;;;;;4931518;28;20401;-86
2022/02/07 22:03:33;;;;;;;5.25;2.15;;;;;;;;;;4933036;29;20059;-86
2022/02/07 22:06:00;;;;;;;8.52;3.10;;;;;;;;;;4931087;29;20055;-87
2022/02/07 22:08:28;;;;;;;8.35;3.45;;;;;;;;;;4934790;28;20126;-86
2022/02/07 22:11:01;;;;;;;6.80;2.80;;;;;;;;;;4941289;28;20044;-86
2022/02/07 22:16:37;;;;;;;7.47;2.90;;;;;;;;;;4878416;29;20526;-87
2022/02/07 22:19:04;;;;;;;9.45;2.40;;;;;;;;;;4892923;29;20057;-85
2022/02/07 22:21:31;;;;;;;5.68;2.20;;;;;;;;;;4891977;29;20093;-86
2022/02/07 22:23:58;;;;;;;2.67;1.10;;;;;;;;;;4892750;29;20126;-85
2022/02/07 22:26:27;;;;;;;5.03;1.10;;;;;;;;;;4891815;29;20072;-86
2022/02/07 22:29:03;;;;;;;5.70;1.38;;;;;;;;;;4892513;29;20052;-85
2022/02/07 22:31:37;;;;;;;4.85;0.88;;;;;;;;;;4891826;29;20124;-85
2022/02/07 22:34:15;;;;;;;5.70;0.75;;;;;;;;;;4891832;29;20048;-86
2022/02/07 22:36:42;;;;;;;3.45;0.75;;;;;;;;;;4893589;29;20613;-85
2022/02/07 22:39:10;;;;;;;4.47;1.00;;;;;;;;;;4891099;29;20068;-85
2022/02/07 22:41:37;;;;;;;4.13;0.90;;;;;;;;;;4891959;29;20053;-86
2022/02/07 22:44:04;;;;;;;5.05;1.05;;;;;;;;;;4891026;29;20056;-86
2022/02/07 22:46:32;;;;;;;6.82;1.35;;;;;;;;;;4891992;29;20079;-86
2022/02/07 22:48:58;;;;;;;7.03;2.25;;;;;;;;;;4893300;29;20108;-87
2022/02/07 22:51:26;;;;;;;5.55;1.27;;;;;;;;;;4896883;29;20115;-87
2022/02/07 22:53:53;;;;;;;8.50;3.45;;;;;;;;;;4927547;29;20052;-87
2022/02/07 22:56:22;;;;;;;9.05;1.95;;;;;;;;;;4930057;28;20063;-86
2022/02/07 22:58:51;;;;;;;12.15;1.27;;;;;;;;;;4931073;28;20047;-87
